< Typhoon 200709 2007 Season Typhoon 200711 >
Typhoon 200710 (DANAS)
General InformationTrack Information on Google MapsDetailed Wind InformationAccess Analytics MapList of All Images || Disaster Info.WeblogTrackbackTyphoon FrontResourceGoogle EarthGE AnimationAtom FeedGeoJSON
Detalied Best Track (Time Zone = UTC)
Year Month Day Hour Lat. Long. Pressure (hPa) Wind (kt) Class Image Chart
2007 9 6 00 23.6 161.3 1008 0 2 Image Chart
2007 9 6 06 24.4 160.8 1006 0 2 Image Chart
2007 9 6 12 25.1 159.7 1006 0 2 Image Chart
2007 9 6 18 25.4 158.3 1004 0 2 Image Chart
2007 9 7 00 25.7 157.7 1004 0 2 Image Chart
2007 9 7 06 26.7 157.1 1002 35 3 Image Chart
2007 9 7 12 27.7 156.3 1002 35 3 Image Chart
2007 9 7 18 28.4 155.2 1002 35 3 Image Chart
2007 9 8 00 29.3 154.1 1000 40 3 Image Chart
2007 9 8 06 29.9 152.8 998 45 3 Image Chart
2007 9 8 12 30.3 151.6 998 45 3 Image Chart
2007 9 8 18 31.2 150.6 998 45 3 Image Chart
2007 9 9 00 32.0 149.6 998 45 3 Image Chart
2007 9 9 06 33.2 148.7 998 45 3 Image Chart
2007 9 9 12 34.2 148.4 996 50 4 Image Chart
2007 9 9 18 35.4 148.4 994 50 4 Image Chart
2007 9 10 00 36.7 148.7 994 50 4 Image Chart
2007 9 10 06 38.2 150.2 994 50 4 Image Chart
2007 9 10 12 39.3 152.3 994 50 4 Image Chart
2007 9 10 18 40.4 154.7 990 55 4 Image Chart
2007 9 11 00 41.3 157.9 994 50 4 Image Chart
2007 9 11 06 41.1 161.0 994 50 4 Image Chart
2007 9 11 12 40.6 164.4 994 45 3 Image Chart
2007 9 11 18 40.0 167.6 1000 0 6 Image Chart
2007 9 12 00 39.8 170.4 1002 0 6 Image Chart
2007 9 12 06 39.6 172.9 1002 0 6 Image Chart
2007 9 12 12 40.6 175.2 1004 0 6 Image Chart
2007 9 12 18 41.6 177.7 1004 0 6 Image Chart
2007 9 13 00 41.9 182.0 1000 0 6 Image Chart
Japan Meteorological Agency Best Track Data | Correction Date : 2007-10-17
< Typhoon 200709 2007 Season Typhoon 200711 >

Help